sensor_id;sensor_type;location;lat;lon;timestamp;P1;durP1;ratioP1;P2;durP2;ratioP2
36839;SDS011;24406;51.640;9.566;2023-02-28T00:01:41;2.80;;;2.60;;
36839;SDS011;24406;51.640;9.566;2023-02-28T00:06:43;2.30;;;2.08;;
36839;SDS011;24406;51.640;9.566;2023-02-28T00:11:44;2.47;;;2.10;;
36839;SDS011;24406;51.640;9.566;2023-02-28T00:16:47;1.90;;;1.80;;
36839;SDS011;24406;51.640;9.566;2023-02-28T00:21:49;1.58;;;1.48;;
36839;SDS011;24406;51.640;9.566;2023-02-28T00:26:50;2.72;;;2.53;;
36839;SDS011;24406;51.640;9.566;2023-02-28T00:31:54;2.13;;;1.60;;
36839;SDS011;24406;51.640;9.566;2023-02-28T00:36:55;2.55;;;2.00;;
36839;SDS011;24406;51.640;9.566;2023-02-28T00:41:57;2.67;;;1.83;;
36839;SDS011;24406;51.640;9.566;2023-02-28T00:47:00;2.10;;;1.70;;
36839;SDS011;24406;51.640;9.566;2023-02-28T00:52:01;2.97;;;2.00;;
36839;SDS011;24406;51.640;9.566;2023-02-28T00:57:03;2.53;;;2.33;;
36839;SDS011;24406;51.640;9.566;2023-02-28T01:02:07;4.72;;;2.50;;
36839;SDS011;24406;51.640;9.566;2023-02-28T01:07:10;3.50;;;2.67;;
36839;SDS011;24406;51.640;9.566;2023-02-28T01:12:12;3.47;;;2.08;;
36839;SDS011;24406;51.640;9.566;2023-02-28T01:17:15;6.80;;;2.35;;
36839;SDS011;24406;51.640;9.566;2023-02-28T01:22:16;2.58;;;2.20;;
36839;SDS011;24406;51.640;9.566;2023-02-28T01:27:18;6.28;;;3.10;;
36839;SDS011;24406;51.640;9.566;2023-02-28T01:32:20;4.15;;;2.63;;
36839;SDS011;24406;51.640;9.566;2023-02-28T01:37:24;4.53;;;2.63;;
36839;SDS011;24406;51.640;9.566;2023-02-28T01:42:25;5.35;;;3.20;;
36839;SDS011;24406;51.640;9.566;2023-02-28T01:47:28;4.30;;;3.90;;
36839;SDS011;24406;51.640;9.566;2023-02-28T01:52:31;4.30;;;2.92;;
36839;SDS011;24406;51.640;9.566;2023-02-28T01:57:34;4.85;;;3.00;;
36839;SDS011;24406;51.640;9.566;2023-02-28T02:02:39;3.92;;;3.30;;
36839;SDS011;24406;51.640;9.566;2023-02-28T02:07:43;7.22;;;3.47;;
36839;SDS011;24406;51.640;9.566;2023-02-28T02:12:52;3.67;;;3.13;;
36839;SDS011;24406;51.640;9.566;2023-02-28T02:18:04;4.93;;;3.15;;
36839;SDS011;24406;51.640;9.566;2023-02-28T02:28:55;6.38;;;4.55;;
36839;SDS011;24406;51.640;9.566;2023-02-28T02:34:19;5.97;;;3.88;;
36839;SDS011;24406;51.640;9.566;2023-02-28T02:39:36;4.85;;;4.10;;
36839;SDS011;24406;51.640;9.566;2023-02-28T02:44:43;4.53;;;3.95;;
36839;SDS011;24406;51.640;9.566;2023-02-28T02:49:49;8.45;;;4.35;;
36839;SDS011;24406;51.640;9.566;2023-02-28T02:54:53;5.30;;;4.80;;
36839;SDS011;24406;51.640;9.566;2023-02-28T02:59:56;4.97;;;4.35;;
36839;SDS011;24406;51.640;9.566;2023-02-28T03:04:59;5.85;;;3.38;;
36839;SDS011;24406;51.640;9.566;2023-02-28T03:15:27;2.58;;;2.38;;
36839;SDS011;24406;51.640;9.566;2023-02-28T03:20:36;3.55;;;1.83;;
36839;SDS011;24406;51.640;9.566;2023-02-28T03:25:42;3.63;;;2.33;;
36839;SDS011;24406;51.640;9.566;2023-02-28T03:30:49;2.78;;;1.92;;
36839;SDS011;24406;51.640;9.566;2023-02-28T03:35:55;2.65;;;2.30;;
36839;SDS011;24406;51.640;9.566;2023-02-28T03:41:00;5.50;;;2.28;;
36839;SDS011;24406;51.640;9.566;2023-02-28T03:46:06;2.17;;;1.98;;
36839;SDS011;24406;51.640;9.566;2023-02-28T03:51:12;2.65;;;2.45;;
36839;SDS011;24406;51.640;9.566;2023-02-28T03:56:20;3.47;;;3.17;;
36839;SDS011;24406;51.640;9.566;2023-02-28T04:01:24;4.68;;;3.70;;
36839;SDS011;24406;51.640;9.566;2023-02-28T04:06:30;3.80;;;3.40;;
36839;SDS011;24406;51.640;9.566;2023-02-28T04:11:33;4.03;;;3.55;;
36839;SDS011;24406;51.640;9.566;2023-02-28T04:16:37;3.17;;;2.85;;
36839;SDS011;24406;51.640;9.566;2023-02-28T04:21:41;5.63;;;4.63;;
36839;SDS011;24406;51.640;9.566;2023-02-28T04:26:44;4.45;;;3.17;;
36839;SDS011;24406;51.640;9.566;2023-02-28T04:31:47;7.35;;;5.10;;
36839;SDS011;24406;51.640;9.566;2023-02-28T04:36:50;5.70;;;4.63;;
36839;SDS011;24406;51.640;9.566;2023-02-28T04:41:54;5.68;;;4.47;;
36839;SDS011;24406;51.640;9.566;2023-02-28T04:46:55;4.80;;;4.28;;
36839;SDS011;24406;51.640;9.566;2023-02-28T04:51:58;7.13;;;4.53;;
36839;SDS011;24406;51.640;9.566;2023-02-28T04:56:59;9.10;;;5.97;;
36839;SDS011;24406;51.640;9.566;2023-02-28T05:02:01;11.15;;;8.45;;
36839;SDS011;24406;51.640;9.566;2023-02-28T05:07:08;12.40;;;9.40;;
36839;SDS011;24406;51.640;9.566;2023-02-28T05:12:09;16.70;;;11.60;;
36839;SDS011;24406;51.640;9.566;2023-02-28T05:17:11;14.20;;;10.50;;
36839;SDS011;24406;51.640;9.566;2023-02-28T05:22:14;6.55;;;5.85;;
36839;SDS011;24406;51.640;9.566;2023-02-28T05:27:17;8.35;;;4.80;;
36839;SDS011;24406;51.640;9.566;2023-02-28T05:32:18;5.40;;;4.40;;
36839;SDS011;24406;51.640;9.566;2023-02-28T05:37:21;4.70;;;4.30;;
36839;SDS011;24406;51.640;9.566;2023-02-28T05:42:23;6.43;;;5.05;;
36839;SDS011;24406;51.640;9.566;2023-02-28T05:47:24;8.23;;;6.07;;
36839;SDS011;24406;51.640;9.566;2023-02-28T05:52:27;7.63;;;5.93;;
36839;SDS011;24406;51.640;9.566;2023-02-28T05:57:29;8.00;;;5.10;;
36839;SDS011;24406;51.640;9.566;2023-02-28T06:02:31;6.28;;;5.53;;
36839;SDS011;24406;51.640;9.566;2023-02-28T06:07:34;9.45;;;4.90;;
36839;SDS011;24406;51.640;9.566;2023-02-28T06:12:36;10.13;;;8.25;;
36839;SDS011;24406;51.640;9.566;2023-02-28T06:17:37;5.57;;;4.47;;
36839;SDS011;24406;51.640;9.566;2023-02-28T06:22:40;8.77;;;7.32;;
36839;SDS011;24406;51.640;9.566;2023-02-28T06:27:42;9.18;;;7.55;;
36839;SDS011;24406;51.640;9.566;2023-02-28T06:32:44;9.45;;;8.43;;
36839;SDS011;24406;51.640;9.566;2023-02-28T06:37:47;12.50;;;9.80;;
36839;SDS011;24406;51.640;9.566;2023-02-28T06:42:48;9.25;;;7.00;;
36839;SDS011;24406;51.640;9.566;2023-02-28T06:47:50;8.82;;;6.40;;
36839;SDS011;24406;51.640;9.566;2023-02-28T06:52:53;9.13;;;6.38;;
36839;SDS011;24406;51.640;9.566;2023-02-28T06:57:56;7.80;;;6.15;;
36839;SDS011;24406;51.640;9.566;2023-02-28T07:02:58;12.23;;;6.47;;
36839;SDS011;24406;51.640;9.566;2023-02-28T07:08:00;10.00;;;6.00;;
36839;SDS011;24406;51.640;9.566;2023-02-28T07:13:03;11.98;;;6.43;;
36839;SDS011;24406;51.640;9.566;2023-02-28T07:18:05;6.22;;;4.90;;
36839;SDS011;24406;51.640;9.566;2023-02-28T07:23:07;9.13;;;4.93;;
36839;SDS011;24406;51.640;9.566;2023-02-28T07:28:09;6.60;;;5.43;;
36839;SDS011;24406;51.640;9.566;2023-02-28T07:33:10;5.93;;;4.55;;
36839;SDS011;24406;51.640;9.566;2023-02-28T07:38:13;22.13;;;12.57;;
36839;SDS011;24406;51.640;9.566;2023-02-28T07:43:15;3.42;;;2.90;;
36839;SDS011;24406;51.640;9.566;2023-02-28T07:48:16;3.47;;;3.17;;
36839;SDS011;24406;51.640;9.566;2023-02-28T07:53:19;4.03;;;2.60;;
36839;SDS011;24406;51.640;9.566;2023-02-28T07:58:21;5.25;;;2.88;;
36839;SDS011;24406;51.640;9.566;2023-02-28T08:03:23;3.00;;;2.70;;
36839;SDS011;24406;51.640;9.566;2023-02-28T08:08:26;4.03;;;3.30;;
36839;SDS011;24406;51.640;9.566;2023-02-28T08:13:31;3.70;;;3.40;;
36839;SDS011;24406;51.640;9.566;2023-02-28T08:18:33;7.30;;;4.07;;
36839;SDS011;24406;51.640;9.566;2023-02-28T08:23:36;4.13;;;3.72;;
36839;SDS011;24406;51.640;9.566;2023-02-28T08:28:38;4.15;;;3.78;;
36839;SDS011;24406;51.640;9.566;2023-02-28T08:33:40;5.50;;;4.15;;
36839;SDS011;24406;51.640;9.566;2023-02-28T08:38:43;5.13;;;3.88;;
36839;SDS011;24406;51.640;9.566;2023-02-28T08:43:45;4.30;;;3.90;;
36839;SDS011;24406;51.640;9.566;2023-02-28T08:48:51;3.92;;;3.58;;
36839;SDS011;24406;51.640;9.566;2023-02-28T08:53:54;4.03;;;3.63;;
36839;SDS011;24406;51.640;9.566;2023-02-28T08:58:56;4.53;;;3.42;;
36839;SDS011;24406;51.640;9.566;2023-02-28T09:03:58;4.22;;;3.10;;
36839;SDS011;24406;51.640;9.566;2023-02-28T09:09:02;3.63;;;3.25;;
36839;SDS011;24406;51.640;9.566;2023-02-28T09:14:06;3.10;;;2.80;;
36839;SDS011;24406;51.640;9.566;2023-02-28T09:19:10;4.75;;;3.08;;
36839;SDS011;24406;51.640;9.566;2023-02-28T09:24:13;2.70;;;2.50;;
36839;SDS011;24406;51.640;9.566;2023-02-28T09:29:15;4.10;;;3.05;;
36839;SDS011;24406;51.640;9.566;2023-02-28T09:34:17;4.22;;;2.85;;
36839;SDS011;24406;51.640;9.566;2023-02-28T09:39:21;4.40;;;2.47;;
36839;SDS011;24406;51.640;9.566;2023-02-28T09:44:25;3.53;;;2.90;;
36839;SDS011;24406;51.640;9.566;2023-02-28T09:49:31;2.90;;;2.65;;
36839;SDS011;24406;51.640;9.566;2023-02-28T09:54:40;2.90;;;2.60;;
36839;SDS011;24406;51.640;9.566;2023-02-28T09:59:46;3.45;;;3.15;;
36839;SDS011;24406;51.640;9.566;2023-02-28T10:04:53;4.05;;;3.10;;
36839;SDS011;24406;51.640;9.566;2023-02-28T10:09:59;4.03;;;2.80;;
36839;SDS011;24406;51.640;9.566;2023-02-28T10:15:04;3.50;;;3.17;;
36839;SDS011;24406;51.640;9.566;2023-02-28T10:20:07;3.63;;;3.10;;
36839;SDS011;24406;51.640;9.566;2023-02-28T10:25:17;4.78;;;3.10;;
36839;SDS011;24406;51.640;9.566;2023-02-28T10:30:20;6.18;;;3.15;;
36839;SDS011;24406;51.640;9.566;2023-02-28T10:35:22;4.70;;;3.05;;
36839;SDS011;24406;51.640;9.566;2023-02-28T10:40:27;3.05;;;2.85;;
36839;SDS011;24406;51.640;9.566;2023-02-28T10:45:31;3.38;;;3.05;;
36839;SDS011;24406;51.640;9.566;2023-02-28T10:50:37;4.22;;;3.00;;
36839;SDS011;24406;51.640;9.566;2023-02-28T10:55:46;3.53;;;3.00;;
36839;SDS011;24406;51.640;9.566;2023-02-28T11:00:58;4.35;;;3.33;;
36839;SDS011;24406;51.640;9.566;2023-02-28T11:06:04;5.07;;;3.78;;
36839;SDS011;24406;51.640;9.566;2023-02-28T11:11:08;3.35;;;2.83;;
36839;SDS011;24406;51.640;9.566;2023-02-28T11:16:10;3.22;;;2.92;;
36839;SDS011;24406;51.640;9.566;2023-02-28T11:21:15;4.13;;;3.72;;
36839;SDS011;24406;51.640;9.566;2023-02-28T11:31:40;3.97;;;3.58;;
36839;SDS011;24406;51.640;9.566;2023-02-28T11:36:42;4.65;;;3.42;;
36839;SDS011;24406;51.640;9.566;2023-02-28T11:41:51;5.00;;;3.42;;
36839;SDS011;24406;51.640;9.566;2023-02-28T11:47:00;4.03;;;3.22;;
36839;SDS011;24406;51.640;9.566;2023-02-28T11:52:06;3.00;;;2.80;;
36839;SDS011;24406;51.640;9.566;2023-02-28T12:02:48;3.72;;;3.42;;
36839;SDS011;24406;51.640;9.566;2023-02-28T12:07:57;5.32;;;3.20;;
36839;SDS011;24406;51.640;9.566;2023-02-28T12:13:08;2.80;;;2.60;;
36839;SDS011;24406;51.640;9.566;2023-02-28T12:18:21;4.72;;;3.05;;
36839;SDS011;24406;51.640;9.566;2023-02-28T12:23:38;3.00;;;2.70;;
36839;SDS011;24406;51.640;9.566;2023-02-28T12:28:51;4.25;;;3.10;;
36839;SDS011;24406;51.640;9.566;2023-02-28T12:33:59;4.35;;;2.88;;
36839;SDS011;24406;51.640;9.566;2023-02-28T12:39:06;4.60;;;2.95;;
36839;SDS011;24406;51.640;9.566;2023-02-28T12:44:11;3.53;;;3.22;;
36839;SDS011;24406;51.640;9.566;2023-02-28T12:49:15;4.07;;;3.25;;
36839;SDS011;24406;51.640;9.566;2023-02-28T12:54:19;3.75;;;2.78;;
36839;SDS011;24406;51.640;9.566;2023-02-28T12:59:27;3.05;;;2.80;;
36839;SDS011;24406;51.640;9.566;2023-02-28T13:10:19;3.60;;;2.58;;
36839;SDS011;24406;51.640;9.566;2023-02-28T13:15:22;5.05;;;2.58;;
36839;SDS011;24406;51.640;9.566;2023-02-28T13:20:29;3.63;;;3.13;;
36839;SDS011;24406;51.640;9.566;2023-02-28T13:31:05;5.10;;;3.47;;
36839;SDS011;24406;51.640;9.566;2023-02-28T13:36:08;3.08;;;2.80;;
36839;SDS011;24406;51.640;9.566;2023-02-28T13:47:19;2.95;;;2.70;;
36839;SDS011;24406;51.640;9.566;2023-02-28T13:52:23;4.25;;;2.80;;
36839;SDS011;24406;51.640;9.566;2023-02-28T13:57:27;4.63;;;3.22;;
36839;SDS011;24406;51.640;9.566;2023-02-28T14:02:40;3.17;;;2.88;;
36839;SDS011;24406;51.640;9.566;2023-02-28T14:07:50;3.17;;;2.88;;
36839;SDS011;24406;51.640;9.566;2023-02-28T14:12:54;3.15;;;2.80;;
36839;SDS011;24406;51.640;9.566;2023-02-28T14:18:05;3.30;;;3.00;;
36839;SDS011;24406;51.640;9.566;2023-02-28T14:23:18;2.92;;;2.63;;
36839;SDS011;24406;51.640;9.566;2023-02-28T14:28:27;3.67;;;2.95;;
36839;SDS011;24406;51.640;9.566;2023-02-28T14:33:54;3.25;;;2.80;;
36839;SDS011;24406;51.640;9.566;2023-02-28T14:39:03;3.17;;;2.60;;
36839;SDS011;24406;51.640;9.566;2023-02-28T14:44:13;4.35;;;2.97;;
36839;SDS011;24406;51.640;9.566;2023-02-28T14:49:19;3.30;;;3.00;;
36839;SDS011;24406;51.640;9.566;2023-02-28T14:54:22;3.08;;;2.78;;
36839;SDS011;24406;51.640;9.566;2023-02-28T14:59:26;3.85;;;3.40;;
36839;SDS011;24406;51.640;9.566;2023-02-28T15:04:31;4.68;;;3.15;;
36839;SDS011;24406;51.640;9.566;2023-02-28T15:09:33;5.38;;;3.13;;
36839;SDS011;24406;51.640;9.566;2023-02-28T15:14:34;4.03;;;3.25;;
36839;SDS011;24406;51.640;9.566;2023-02-28T15:19:41;3.70;;;3.40;;
36839;SDS011;24406;51.640;9.566;2023-02-28T15:24:43;4.25;;;3.85;;
36839;SDS011;24406;51.640;9.566;2023-02-28T15:29:47;7.38;;;3.53;;
36839;SDS011;24406;51.640;9.566;2023-02-28T15:34:53;4.95;;;3.20;;
36839;SDS011;24406;51.640;9.566;2023-02-28T15:39:57;4.07;;;3.63;;
36839;SDS011;24406;51.640;9.566;2023-02-28T15:45:00;4.03;;;3.63;;
36839;SDS011;24406;51.640;9.566;2023-02-28T15:50:05;3.85;;;3.40;;
36839;SDS011;24406;51.640;9.566;2023-02-28T15:55:11;4.28;;;3.72;;
36839;SDS011;24406;51.640;9.566;2023-02-28T16:00:19;5.03;;;3.47;;
36839;SDS011;24406;51.640;9.566;2023-02-28T16:05:24;5.95;;;4.78;;
36839;SDS011;24406;51.640;9.566;2023-02-28T16:10:32;4.82;;;4.07;;
36839;SDS011;24406;51.640;9.566;2023-02-28T16:15:35;4.10;;;3.70;;
36839;SDS011;24406;51.640;9.566;2023-02-28T16:20:42;8.93;;;7.90;;
36839;SDS011;24406;51.640;9.566;2023-02-28T16:25:44;6.18;;;5.57;;
36839;SDS011;24406;51.640;9.566;2023-02-28T16:30:46;4.50;;;4.10;;
36839;SDS011;24406;51.640;9.566;2023-02-28T16:35:49;11.40;;;4.50;;
36839;SDS011;24406;51.640;9.566;2023-02-28T16:40:51;5.00;;;4.40;;
36839;SDS011;24406;51.640;9.566;2023-02-28T16:45:54;6.05;;;4.93;;
36839;SDS011;24406;51.640;9.566;2023-02-28T16:50:57;5.22;;;4.60;;
36839;SDS011;24406;51.640;9.566;2023-02-28T16:56:00;5.88;;;4.97;;
36839;SDS011;24406;51.640;9.566;2023-02-28T17:01:02;6.13;;;5.53;;
36839;SDS011;24406;51.640;9.566;2023-02-28T17:06:05;8.25;;;6.30;;
36839;SDS011;24406;51.640;9.566;2023-02-28T17:11:07;10.32;;;7.00;;
36839;SDS011;24406;51.640;9.566;2023-02-28T17:16:13;9.63;;;6.78;;
36839;SDS011;24406;51.640;9.566;2023-02-28T17:21:20;6.00;;;5.50;;
36839;SDS011;24406;51.640;9.566;2023-02-28T17:26:22;5.75;;;5.13;;
36839;SDS011;24406;51.640;9.566;2023-02-28T17:31:25;5.57;;;4.82;;
36839;SDS011;24406;51.640;9.566;2023-02-28T17:36:28;6.28;;;5.03;;
36839;SDS011;24406;51.640;9.566;2023-02-28T17:41:30;6.28;;;4.53;;
36839;SDS011;24406;51.640;9.566;2023-02-28T17:46:32;7.88;;;5.28;;
36839;SDS011;24406;51.640;9.566;2023-02-28T17:51:35;5.32;;;4.50;;
36839;SDS011;24406;51.640;9.566;2023-02-28T17:56:36;8.82;;;4.85;;
36839;SDS011;24406;51.640;9.566;2023-02-28T18:01:38;6.82;;;6.03;;
36839;SDS011;24406;51.640;9.566;2023-02-28T18:06:42;16.85;;;11.02;;
36839;SDS011;24406;51.640;9.566;2023-02-28T18:11:47;18.80;;;12.50;;
36839;SDS011;24406;51.640;9.566;2023-02-28T18:16:50;7.28;;;6.57;;
36839;SDS011;24406;51.640;9.566;2023-02-28T18:21:53;13.05;;;11.68;;
36839;SDS011;24406;51.640;9.566;2023-02-28T18:26:55;9.93;;;8.05;;
36839;SDS011;24406;51.640;9.566;2023-02-28T18:31:57;8.60;;;6.40;;
36839;SDS011;24406;51.640;9.566;2023-02-28T18:37:00;7.03;;;6.03;;
36839;SDS011;24406;51.640;9.566;2023-02-28T18:42:02;7.18;;;6.47;;
36839;SDS011;24406;51.640;9.566;2023-02-28T18:47:04;14.57;;;8.77;;
36839;SDS011;24406;51.640;9.566;2023-02-28T18:52:06;15.60;;;9.10;;
36839;SDS011;24406;51.640;9.566;2023-02-28T18:57:08;15.45;;;10.27;;
36839;SDS011;24406;51.640;9.566;2023-02-28T19:02:09;16.30;;;10.13;;
36839;SDS011;24406;51.640;9.566;2023-02-28T19:07:12;9.10;;;7.05;;
36839;SDS011;24406;51.640;9.566;2023-02-28T19:12:14;8.40;;;6.43;;
36839;SDS011;24406;51.640;9.566;2023-02-28T19:17:18;6.90;;;6.00;;
36839;SDS011;24406;51.640;9.566;2023-02-28T19:22:21;7.63;;;6.80;;
36839;SDS011;24406;51.640;9.566;2023-02-28T19:27:23;6.78;;;6.00;;
36839;SDS011;24406;51.640;9.566;2023-02-28T19:32:24;9.93;;;6.03;;
36839;SDS011;24406;51.640;9.566;2023-02-28T19:37:28;9.68;;;6.85;;
36839;SDS011;24406;51.640;9.566;2023-02-28T19:42:29;12.48;;;9.38;;
36839;SDS011;24406;51.640;9.566;2023-02-28T19:47:33;11.15;;;8.52;;
36839;SDS011;24406;51.640;9.566;2023-02-28T19:52:36;10.60;;;7.55;;
36839;SDS011;24406;51.640;9.566;2023-02-28T19:57:38;10.27;;;8.57;;
36839;SDS011;24406;51.640;9.566;2023-02-28T20:02:39;13.95;;;9.93;;
36839;SDS011;24406;51.640;9.566;2023-02-28T20:07:42;9.30;;;7.18;;
36839;SDS011;24406;51.640;9.566;2023-02-28T20:12:44;6.75;;;5.80;;
36839;SDS011;24406;51.640;9.566;2023-02-28T20:17:45;8.30;;;6.82;;
36839;SDS011;24406;51.640;9.566;2023-02-28T20:22:48;8.70;;;7.53;;
36839;SDS011;24406;51.640;9.566;2023-02-28T20:27:50;12.23;;;8.60;;
36839;SDS011;24406;51.640;9.566;2023-02-28T20:32:51;11.93;;;8.35;;
36839;SDS011;24406;51.640;9.566;2023-02-28T20:37:54;15.23;;;10.93;;
36839;SDS011;24406;51.640;9.566;2023-02-28T20:42:55;11.38;;;8.77;;
36839;SDS011;24406;51.640;9.566;2023-02-28T20:47:57;10.65;;;7.93;;
36839;SDS011;24406;51.640;9.566;2023-02-28T20:53:00;12.45;;;9.57;;
36839;SDS011;24406;51.640;9.566;2023-02-28T20:58:01;14.80;;;10.90;;
36839;SDS011;24406;51.640;9.566;2023-02-28T21:03:03;14.60;;;10.82;;
36839;SDS011;24406;51.640;9.566;2023-02-28T21:08:06;12.20;;;9.30;;
36839;SDS011;24406;51.640;9.566;2023-02-28T21:13:07;10.30;;;8.30;;
36839;SDS011;24406;51.640;9.566;2023-02-28T21:18:09;13.35;;;9.88;;
36839;SDS011;24406;51.640;9.566;2023-02-28T21:23:12;13.75;;;10.85;;
36839;SDS011;24406;51.640;9.566;2023-02-28T21:28:14;14.95;;;11.20;;
36839;SDS011;24406;51.640;9.566;2023-02-28T21:33:15;22.38;;;14.13;;
36839;SDS011;24406;51.640;9.566;2023-02-28T21:38:18;12.75;;;10.52;;
36839;SDS011;24406;51.640;9.566;2023-02-28T21:43:19;19.05;;;12.88;;
36839;SDS011;24406;51.640;9.566;2023-02-28T21:48:21;14.63;;;10.70;;
36839;SDS011;24406;51.640;9.566;2023-02-28T21:53:24;43.30;;;27.80;;
36839;SDS011;24406;51.640;9.566;2023-02-28T21:58:25;27.58;;;18.58;;
36839;SDS011;24406;51.640;9.566;2023-02-28T22:03:27;17.88;;;12.73;;
36839;SDS011;24406;51.640;9.566;2023-02-28T22:08:30;15.82;;;11.30;;
36839;SDS011;24406;51.640;9.566;2023-02-28T22:13:31;12.32;;;9.48;;
36839;SDS011;24406;51.640;9.566;2023-02-28T22:18:33;11.95;;;9.20;;
36839;SDS011;24406;51.640;9.566;2023-02-28T22:23:37;17.35;;;10.93;;
36839;SDS011;24406;51.640;9.566;2023-02-28T22:28:39;14.45;;;9.20;;
36839;SDS011;24406;51.640;9.566;2023-02-28T22:33:41;9.50;;;7.13;;
36839;SDS011;24406;51.640;9.566;2023-02-28T22:38:45;10.80;;;7.55;;
36839;SDS011;24406;51.640;9.566;2023-02-28T22:43:49;10.30;;;6.97;;
36839;SDS011;24406;51.640;9.566;2023-02-28T22:48:51;10.25;;;7.57;;
36839;SDS011;24406;51.640;9.566;2023-02-28T22:53:55;9.95;;;7.30;;
36839;SDS011;24406;51.640;9.566;2023-02-28T22:58:57;12.55;;;9.40;;
36839;SDS011;24406;51.640;9.566;2023-02-28T23:04:00;12.23;;;9.10;;
36839;SDS011;24406;51.640;9.566;2023-02-28T23:09:04;11.45;;;8.48;;
36839;SDS011;24406;51.640;9.566;2023-02-28T23:14:07;16.88;;;10.88;;
36839;SDS011;24406;51.640;9.566;2023-02-28T23:19:10;15.82;;;11.48;;
36839;SDS011;24406;51.640;9.566;2023-02-28T23:24:15;15.02;;;10.60;;
36839;SDS011;24406;51.640;9.566;2023-02-28T23:29:18;13.27;;;10.13;;
36839;SDS011;24406;51.640;9.566;2023-02-28T23:34:21;16.88;;;12.55;;
36839;SDS011;24406;51.640;9.566;2023-02-28T23:39:27;19.20;;;10.82;;
36839;SDS011;24406;51.640;9.566;2023-02-28T23:44:29;13.05;;;9.57;;
36839;SDS011;24406;51.640;9.566;2023-02-28T23:49:31;14.40;;;9.50;;
36839;SDS011;24406;51.640;9.566;2023-02-28T23:54:34;11.93;;;9.50;;
36839;SDS011;24406;51.640;9.566;2023-02-28T23:59:35;15.25;;;10.95;;
